sensor_id;sensor_type;location;lat;lon;timestamp;temperature;humidity
22850;DHT22;11591;44.792;10.358;2023-03-22T00:00:50;14.30;99.90
22850;DHT22;11591;44.792;10.358;2023-03-22T00:03:16;14.20;99.90
22850;DHT22;11591;44.792;10.358;2023-03-22T00:05:42;14.20;99.90
22850;DHT22;11591;44.792;10.358;2023-03-22T00:08:08;14.10;99.90
22850;DHT22;11591;44.792;10.358;2023-03-22T00:10:37;14.10;99.90
22850;DHT22;11591;44.792;10.358;2023-03-22T00:13:04;14.20;99.90
22850;DHT22;11591;44.792;10.358;2023-03-22T00:15:31;14.20;99.90
22850;DHT22;11591;44.792;10.358;2023-03-22T00:17:57;14.20;99.90
22850;DHT22;11591;44.792;10.358;2023-03-22T00:20:27;14.10;99.90
22850;DHT22;11591;44.792;10.358;2023-03-22T00:22:58;14.10;99.90
22850;DHT22;11591;44.792;10.358;2023-03-22T00:25:24;14.10;99.90
22850;DHT22;11591;44.792;10.358;2023-03-22T00:27:50;14.10;99.90
22850;DHT22;11591;44.792;10.358;2023-03-22T00:30:15;14.10;99.90
22850;DHT22;11591;44.792;10.358;2023-03-22T00:32:41;14.10;99.90
22850;DHT22;11591;44.792;10.358;2023-03-22T00:35:08;14.10;99.90
22850;DHT22;11591;44.792;10.358;2023-03-22T00:37:35;14.00;99.90
22850;DHT22;11591;44.792;10.358;2023-03-22T00:40:11;14.10;99.90
22850;DHT22;11591;44.792;10.358;2023-03-22T00:42:39;14.10;99.90
22850;DHT22;11591;44.792;10.358;2023-03-22T00:45:07;14.10;99.90
22850;DHT22;11591;44.792;10.358;2023-03-22T00:47:33;14.00;99.90
22850;DHT22;11591;44.792;10.358;2023-03-22T00:49:59;14.00;99.90
22850;DHT22;11591;44.792;10.358;2023-03-22T00:52:26;13.90;99.90
22850;DHT22;11591;44.792;10.358;2023-03-22T00:54:53;13.90;99.90
22850;DHT22;11591;44.792;10.358;2023-03-22T00:57:19;13.90;99.90
22850;DHT22;11591;44.792;10.358;2023-03-22T00:59:45;13.90;99.90
22850;DHT22;11591;44.792;10.358;2023-03-22T01:02:11;13.90;99.90
22850;DHT22;11591;44.792;10.358;2023-03-22T01:04:41;13.90;99.90
22850;DHT22;11591;44.792;10.358;2023-03-22T01:07:13;13.90;99.90
22850;DHT22;11591;44.792;10.358;2023-03-22T01:09:46;13.90;99.90
22850;DHT22;11591;44.792;10.358;2023-03-22T01:12:14;14.00;99.90
22850;DHT22;11591;44.792;10.358;2023-03-22T01:14:41;14.00;99.90
22850;DHT22;11591;44.792;10.358;2023-03-22T01:17:07;13.90;99.90
22850;DHT22;11591;44.792;10.358;2023-03-22T01:19:34;13.90;99.90
22850;DHT22;11591;44.792;10.358;2023-03-22T01:22:00;13.80;99.90
22850;DHT22;11591;44.792;10.358;2023-03-22T01:24:26;13.80;99.90
22850;DHT22;11591;44.792;10.358;2023-03-22T01:26:52;13.80;99.90
22850;DHT22;11591;44.792;10.358;2023-03-22T01:29:19;13.90;99.90
22850;DHT22;11591;44.792;10.358;2023-03-22T01:31:45;13.90;99.90
22850;DHT22;11591;44.792;10.358;2023-03-22T01:34:11;13.80;99.90
22850;DHT22;11591;44.792;10.358;2023-03-22T01:36:37;13.80;99.90
22850;DHT22;11591;44.792;10.358;2023-03-22T01:39:03;13.80;99.90
22850;DHT22;11591;44.792;10.358;2023-03-22T01:41:30;13.70;99.90
22850;DHT22;11591;44.792;10.358;2023-03-22T01:44:12;13.70;99.90
22850;DHT22;11591;44.792;10.358;2023-03-22T01:46:40;13.70;99.90
22850;DHT22;11591;44.792;10.358;2023-03-22T01:49:09;13.70;99.90
22850;DHT22;11591;44.792;10.358;2023-03-22T01:51:39;13.70;99.90
22850;DHT22;11591;44.792;10.358;2023-03-22T01:54:31;13.60;99.90
22850;DHT22;11591;44.792;10.358;2023-03-22T01:57:03;13.70;99.90
22850;DHT22;11591;44.792;10.358;2023-03-22T01:59:38;13.70;99.90
22850;DHT22;11591;44.792;10.358;2023-03-22T02:02:13;13.60;99.90
22850;DHT22;11591;44.792;10.358;2023-03-22T02:04:47;13.60;99.90
22850;DHT22;11591;44.792;10.358;2023-03-22T02:07:23;13.50;99.90
22850;DHT22;11591;44.792;10.358;2023-03-22T02:09:53;13.50;99.90
22850;DHT22;11591;44.792;10.358;2023-03-22T02:13:30;13.50;99.90
22850;DHT22;11591;44.792;10.358;2023-03-22T02:41:21;13.30;99.90
22850;DHT22;11591;44.792;10.358;2023-03-22T02:46:53;13.20;99.90
22850;DHT22;11591;44.792;10.358;2023-03-22T02:49:36;13.10;99.90
22850;DHT22;11591;44.792;10.358;2023-03-22T02:52:31;13.10;99.90
22850;DHT22;11591;44.792;10.358;2023-03-22T02:55:02;13.00;99.90
22850;DHT22;11591;44.792;10.358;2023-03-22T03:00:18;13.00;99.90
22850;DHT22;11591;44.792;10.358;2023-03-22T03:02:57;12.90;99.90
22850;DHT22;11591;44.792;10.358;2023-03-22T03:05:25;12.90;99.90
22850;DHT22;11591;44.792;10.358;2023-03-22T03:07:58;12.80;99.90
22850;DHT22;11591;44.792;10.358;2023-03-22T03:10:26;12.80;99.90
22850;DHT22;11591;44.792;10.358;2023-03-22T03:12:52;12.80;99.90
22850;DHT22;11591;44.792;10.358;2023-03-22T03:15:20;12.90;99.90
22850;DHT22;11591;44.792;10.358;2023-03-22T03:21:01;12.90;99.90
22850;DHT22;11591;44.792;10.358;2023-03-22T03:29:13;12.80;99.90
22850;DHT22;11591;44.792;10.358;2023-03-22T03:32:08;12.80;99.90
22850;DHT22;11591;44.792;10.358;2023-03-22T03:35:17;12.80;99.90
22850;DHT22;11591;44.792;10.358;2023-03-22T03:37:36;12.70;99.90
22850;DHT22;11591;44.792;10.358;2023-03-22T03:40:13;12.70;99.90
22850;DHT22;11591;44.792;10.358;2023-03-22T03:42:45;12.60;99.90
22850;DHT22;11591;44.792;10.358;2023-03-22T03:45:14;12.60;99.90
22850;DHT22;11591;44.792;10.358;2023-03-22T03:47:45;12.60;99.90
22850;DHT22;11591;44.792;10.358;2023-03-22T03:50:14;12.60;99.90
22850;DHT22;11591;44.792;10.358;2023-03-22T03:52:41;12.60;99.90
22850;DHT22;11591;44.792;10.358;2023-03-22T03:55:08;12.60;99.90
22850;DHT22;11591;44.792;10.358;2023-03-22T03:57:34;12.60;99.90
22850;DHT22;11591;44.792;10.358;2023-03-22T04:00:00;12.60;99.90
22850;DHT22;11591;44.792;10.358;2023-03-22T04:02:46;12.50;99.90
22850;DHT22;11591;44.792;10.358;2023-03-22T04:05:32;12.50;99.90
22850;DHT22;11591;44.792;10.358;2023-03-22T04:07:58;12.50;99.90
22850;DHT22;11591;44.792;10.358;2023-03-22T04:10:24;12.50;99.90
22850;DHT22;11591;44.792;10.358;2023-03-22T04:12:50;12.50;99.90
22850;DHT22;11591;44.792;10.358;2023-03-22T04:15:16;12.60;99.90
22850;DHT22;11591;44.792;10.358;2023-03-22T04:17:47;12.60;99.90
22850;DHT22;11591;44.792;10.358;2023-03-22T04:20:14;12.60;99.90
22850;DHT22;11591;44.792;10.358;2023-03-22T04:22:41;12.60;99.90
22850;DHT22;11591;44.792;10.358;2023-03-22T04:25:12;12.60;99.90
22850;DHT22;11591;44.792;10.358;2023-03-22T04:27:46;12.70;99.90
22850;DHT22;11591;44.792;10.358;2023-03-22T04:30:16;12.70;99.90
22850;DHT22;11591;44.792;10.358;2023-03-22T04:33:06;12.70;99.90
22850;DHT22;11591;44.792;10.358;2023-03-22T04:35:48;12.70;99.90
22850;DHT22;11591;44.792;10.358;2023-03-22T04:38:15;12.70;99.90
22850;DHT22;11591;44.792;10.358;2023-03-22T04:40:41;12.60;99.90
22850;DHT22;11591;44.792;10.358;2023-03-22T04:43:17;12.60;99.90
22850;DHT22;11591;44.792;10.358;2023-03-22T04:45:54;12.60;99.90
22850;DHT22;11591;44.792;10.358;2023-03-22T04:48:25;12.50;99.90
22850;DHT22;11591;44.792;10.358;2023-03-22T04:50:54;12.40;99.90
22850;DHT22;11591;44.792;10.358;2023-03-22T04:53:24;12.40;99.90
22850;DHT22;11591;44.792;10.358;2023-03-22T04:55:55;12.40;99.90
22850;DHT22;11591;44.792;10.358;2023-03-22T04:58:26;12.30;99.90
22850;DHT22;11591;44.792;10.358;2023-03-22T05:00:52;12.30;99.90
22850;DHT22;11591;44.792;10.358;2023-03-22T05:03:20;12.20;99.90
22850;DHT22;11591;44.792;10.358;2023-03-22T05:05:53;12.20;99.90
22850;DHT22;11591;44.792;10.358;2023-03-22T05:08:22;12.20;99.90
22850;DHT22;11591;44.792;10.358;2023-03-22T05:10:53;12.20;99.90
22850;DHT22;11591;44.792;10.358;2023-03-22T05:13:20;12.20;99.90
22850;DHT22;11591;44.792;10.358;2023-03-22T05:15:47;12.20;99.90
22850;DHT22;11591;44.792;10.358;2023-03-22T05:18:18;12.20;99.90
22850;DHT22;11591;44.792;10.358;2023-03-22T05:20:54;12.10;99.90
22850;DHT22;11591;44.792;10.358;2023-03-22T05:23:23;12.00;99.90
22850;DHT22;11591;44.792;10.358;2023-03-22T05:25:53;12.00;99.90
22850;DHT22;11591;44.792;10.358;2023-03-22T05:28:20;12.00;99.90
22850;DHT22;11591;44.792;10.358;2023-03-22T05:30:58;12.00;99.90
22850;DHT22;11591;44.792;10.358;2023-03-22T05:33:36;12.00;99.90
22850;DHT22;11591;44.792;10.358;2023-03-22T05:36:03;12.10;99.90
22850;DHT22;11591;44.792;10.358;2023-03-22T05:38:32;12.10;99.90
22850;DHT22;11591;44.792;10.358;2023-03-22T05:41:01;12.10;99.90
22850;DHT22;11591;44.792;10.358;2023-03-22T05:43:29;12.00;99.90
22850;DHT22;11591;44.792;10.358;2023-03-22T05:45:57;11.90;99.90
22850;DHT22;11591;44.792;10.358;2023-03-22T05:48:39;11.90;99.90
22850;DHT22;11591;44.792;10.358;2023-03-22T05:51:07;11.80;99.90
22850;DHT22;11591;44.792;10.358;2023-03-22T05:53:34;11.90;99.90
22850;DHT22;11591;44.792;10.358;2023-03-22T05:56:08;11.90;99.90
22850;DHT22;11591;44.792;10.358;2023-03-22T05:58:35;11.90;99.90
22850;DHT22;11591;44.792;10.358;2023-03-22T06:01:06;11.90;99.90
22850;DHT22;11591;44.792;10.358;2023-03-22T06:03:45;11.90;99.90
22850;DHT22;11591;44.792;10.358;2023-03-22T06:06:31;12.00;99.90
22850;DHT22;11591;44.792;10.358;2023-03-22T06:09:06;12.10;99.90
22850;DHT22;11591;44.792;10.358;2023-03-22T06:11:32;12.10;99.90
22850;DHT22;11591;44.792;10.358;2023-03-22T06:14:02;12.20;99.90
22850;DHT22;11591;44.792;10.358;2023-03-22T06:16:41;12.20;99.90
22850;DHT22;11591;44.792;10.358;2023-03-22T06:19:07;12.30;99.90
22850;DHT22;11591;44.792;10.358;2023-03-22T06:21:32;12.30;99.90
22850;DHT22;11591;44.792;10.358;2023-03-22T06:23:58;12.30;99.90
22850;DHT22;11591;44.792;10.358;2023-03-22T06:26:24;12.30;99.90
22850;DHT22;11591;44.792;10.358;2023-03-22T06:28:50;12.30;99.90
22850;DHT22;11591;44.792;10.358;2023-03-22T06:31:16;12.20;99.90
22850;DHT22;11591;44.792;10.358;2023-03-22T06:34:04;12.20;99.90
22850;DHT22;11591;44.792;10.358;2023-03-22T06:36:40;12.20;99.90
22850;DHT22;11591;44.792;10.358;2023-03-22T06:39:11;12.20;99.90
22850;DHT22;11591;44.792;10.358;2023-03-22T06:41:39;12.10;99.90
22850;DHT22;11591;44.792;10.358;2023-03-22T06:44:05;12.10;99.90
22850;DHT22;11591;44.792;10.358;2023-03-22T06:46:50;12.10;99.90
22850;DHT22;11591;44.792;10.358;2023-03-22T06:49:51;12.00;99.90
22850;DHT22;11591;44.792;10.358;2023-03-22T06:52:24;12.10;99.90
22850;DHT22;11591;44.792;10.358;2023-03-22T06:54:50;12.10;99.90
22850;DHT22;11591;44.792;10.358;2023-03-22T06:57:16;12.20;99.90
22850;DHT22;11591;44.792;10.358;2023-03-22T06:59:42;12.30;99.90
22850;DHT22;11591;44.792;10.358;2023-03-22T07:02:10;12.30;99.90
22850;DHT22;11591;44.792;10.358;2023-03-22T07:04:37;12.40;99.90
22850;DHT22;11591;44.792;10.358;2023-03-22T07:07:02;12.50;99.90
22850;DHT22;11591;44.792;10.358;2023-03-22T07:09:28;12.50;99.90
22850;DHT22;11591;44.792;10.358;2023-03-22T07:11:57;12.60;99.90
22850;DHT22;11591;44.792;10.358;2023-03-22T07:14:25;12.60;99.90
22850;DHT22;11591;44.792;10.358;2023-03-22T07:17:09;12.70;99.90
22850;DHT22;11591;44.792;10.358;2023-03-22T07:19:37;12.80;99.90
22850;DHT22;11591;44.792;10.358;2023-03-22T07:22:07;12.90;99.90
22850;DHT22;11591;44.792;10.358;2023-03-22T07:24:34;13.00;99.90
22850;DHT22;11591;44.792;10.358;2023-03-22T07:27:01;13.00;99.90
22850;DHT22;11591;44.792;10.358;2023-03-22T07:29:27;13.00;99.90
22850;DHT22;11591;44.792;10.358;2023-03-22T07:31:53;13.10;99.90
22850;DHT22;11591;44.792;10.358;2023-03-22T07:34:31;13.10;99.90
22850;DHT22;11591;44.792;10.358;2023-03-22T07:37:03;13.10;99.90
22850;DHT22;11591;44.792;10.358;2023-03-22T07:39:30;13.20;99.90
22850;DHT22;11591;44.792;10.358;2023-03-22T07:41:56;13.20;99.90
22850;DHT22;11591;44.792;10.358;2023-03-22T07:44:22;13.20;99.90
22850;DHT22;11591;44.792;10.358;2023-03-22T07:47:07;13.30;99.90
22850;DHT22;11591;44.792;10.358;2023-03-22T07:49:41;13.40;99.90
22850;DHT22;11591;44.792;10.358;2023-03-22T07:52:17;13.40;99.90
22850;DHT22;11591;44.792;10.358;2023-03-22T07:54:43;13.40;99.90
22850;DHT22;11591;44.792;10.358;2023-03-22T07:57:09;13.50;99.90
22850;DHT22;11591;44.792;10.358;2023-03-22T07:59:46;13.50;99.90
22850;DHT22;11591;44.792;10.358;2023-03-22T08:02:12;13.60;99.90
22850;DHT22;11591;44.792;10.358;2023-03-22T08:04:44;13.60;99.90
22850;DHT22;11591;44.792;10.358;2023-03-22T08:07:24;13.60;99.90
22850;DHT22;11591;44.792;10.358;2023-03-22T08:09:50;13.70;99.90
22850;DHT22;11591;44.792;10.358;2023-03-22T08:12:17;13.70;99.90
22850;DHT22;11591;44.792;10.358;2023-03-22T08:14:45;13.80;99.90
22850;DHT22;11591;44.792;10.358;2023-03-22T08:17:18;13.80;99.90
22850;DHT22;11591;44.792;10.358;2023-03-22T08:19:44;13.90;99.90
22850;DHT22;11591;44.792;10.358;2023-03-22T08:22:14;14.00;99.90
22850;DHT22;11591;44.792;10.358;2023-03-22T08:25:03;14.00;99.90
22850;DHT22;11591;44.792;10.358;2023-03-22T08:27:33;14.10;99.90
22850;DHT22;11591;44.792;10.358;2023-03-22T08:30:00;14.10;99.90
22850;DHT22;11591;44.792;10.358;2023-03-22T08:32:26;14.20;99.90
22850;DHT22;11591;44.792;10.358;2023-03-22T08:34:52;14.20;99.90
22850;DHT22;11591;44.792;10.358;2023-03-22T08:37:18;14.20;99.90
22850;DHT22;11591;44.792;10.358;2023-03-22T08:39:45;14.30;99.90
22850;DHT22;11591;44.792;10.358;2023-03-22T08:42:25;14.30;99.90
22850;DHT22;11591;44.792;10.358;2023-03-22T08:44:51;14.40;99.90
22850;DHT22;11591;44.792;10.358;2023-03-22T08:47:18;14.40;99.90
22850;DHT22;11591;44.792;10.358;2023-03-22T08:49:45;14.50;99.90
22850;DHT22;11591;44.792;10.358;2023-03-22T08:52:18;14.50;99.90
22850;DHT22;11591;44.792;10.358;2023-03-22T08:55:16;14.50;99.90
22850;DHT22;11591;44.792;10.358;2023-03-22T08:58:01;14.40;99.90
22850;DHT22;11591;44.792;10.358;2023-03-22T09:00:36;14.40;99.90
22850;DHT22;11591;44.792;10.358;2023-03-22T09:03:14;14.40;99.90
22850;DHT22;11591;44.792;10.358;2023-03-22T09:05:41;14.50;99.90
22850;DHT22;11591;44.792;10.358;2023-03-22T09:08:07;14.50;99.90
22850;DHT22;11591;44.792;10.358;2023-03-22T09:10:42;14.60;99.90
22850;DHT22;11591;44.792;10.358;2023-03-22T09:13:11;14.60;99.90
22850;DHT22;11591;44.792;10.358;2023-03-22T09:15:43;14.70;99.90
22850;DHT22;11591;44.792;10.358;2023-03-22T09:18:20;14.70;99.90
22850;DHT22;11591;44.792;10.358;2023-03-22T09:20:49;14.80;99.90
22850;DHT22;11591;44.792;10.358;2023-03-22T09:23:19;14.90;99.90
22850;DHT22;11591;44.792;10.358;2023-03-22T09:25:46;15.00;99.90
22850;DHT22;11591;44.792;10.358;2023-03-22T09:28:14;15.00;99.90
22850;DHT22;11591;44.792;10.358;2023-03-22T09:30:41;15.10;99.90
22850;DHT22;11591;44.792;10.358;2023-03-22T09:33:10;15.10;99.90
22850;DHT22;11591;44.792;10.358;2023-03-22T09:35:41;15.20;99.90
22850;DHT22;11591;44.792;10.358;2023-03-22T09:38:09;15.20;99.90
22850;DHT22;11591;44.792;10.358;2023-03-22T09:40:45;15.30;99.90
22850;DHT22;11591;44.792;10.358;2023-03-22T09:43:14;15.40;99.90
22850;DHT22;11591;44.792;10.358;2023-03-22T09:45:44;15.40;99.90
22850;DHT22;11591;44.792;10.358;2023-03-22T09:50:54;15.50;99.90
22850;DHT22;11591;44.792;10.358;2023-03-22T09:53:23;15.50;99.90
22850;DHT22;11591;44.792;10.358;2023-03-22T09:58:30;15.70;99.90
22850;DHT22;11591;44.792;10.358;2023-03-22T10:01:21;15.70;99.90
22850;DHT22;11591;44.792;10.358;2023-03-22T10:06:43;15.80;99.90
22850;DHT22;11591;44.792;10.358;2023-03-22T10:14:45;15.90;99.90
22850;DHT22;11591;44.792;10.358;2023-03-22T10:17:17;16.00;99.90
22850;DHT22;11591;44.792;10.358;2023-03-22T10:20:04;16.00;99.90
22850;DHT22;11591;44.792;10.358;2023-03-22T10:22:40;16.10;99.90
22850;DHT22;11591;44.792;10.358;2023-03-22T10:25:08;16.20;99.90
22850;DHT22;11591;44.792;10.358;2023-03-22T10:27:35;16.20;99.90
22850;DHT22;11591;44.792;10.358;2023-03-22T10:30:22;16.30;99.90
22850;DHT22;11591;44.792;10.358;2023-03-22T10:33:01;16.30;99.90
22850;DHT22;11591;44.792;10.358;2023-03-22T10:35:29;16.30;99.90
22850;DHT22;11591;44.792;10.358;2023-03-22T10:37:57;16.30;99.90
22850;DHT22;11591;44.792;10.358;2023-03-22T10:40:27;16.40;99.90
22850;DHT22;11591;44.792;10.358;2023-03-22T10:42:56;16.40;99.90
22850;DHT22;11591;44.792;10.358;2023-03-22T10:45:25;16.50;99.90
22850;DHT22;11591;44.792;10.358;2023-03-22T10:50:42;16.50;99.90
22850;DHT22;11591;44.792;10.358;2023-03-22T10:55:53;16.50;99.90
22850;DHT22;11591;44.792;10.358;2023-03-22T10:58:21;16.60;99.90
22850;DHT22;11591;44.792;10.358;2023-03-22T11:00:51;16.70;99.90
22850;DHT22;11591;44.792;10.358;2023-03-22T11:03:28;16.70;99.90
22850;DHT22;11591;44.792;10.358;2023-03-22T11:06:09;16.80;99.90
22850;DHT22;11591;44.792;10.358;2023-03-22T11:08:47;16.90;99.90
22850;DHT22;11591;44.792;10.358;2023-03-22T11:13:59;16.90;99.90
22850;DHT22;11591;44.792;10.358;2023-03-22T11:16:27;16.90;99.90
22850;DHT22;11591;44.792;10.358;2023-03-22T11:18:54;17.00;99.90
22850;DHT22;11591;44.792;10.358;2023-03-22T11:21:29;17.00;99.90
22850;DHT22;11591;44.792;10.358;2023-03-22T11:23:59;17.10;99.90
22850;DHT22;11591;44.792;10.358;2023-03-22T11:26:30;17.10;99.90
22850;DHT22;11591;44.792;10.358;2023-03-22T11:29:05;17.20;99.90
22850;DHT22;11591;44.792;10.358;2023-03-22T11:34:18;17.20;99.90
22850;DHT22;11591;44.792;10.358;2023-03-22T11:36:45;17.30;99.90
22850;DHT22;11591;44.792;10.358;2023-03-22T11:39:15;17.30;99.90
22850;DHT22;11591;44.792;10.358;2023-03-22T11:41:42;17.30;99.90
22850;DHT22;11591;44.792;10.358;2023-03-22T11:44:15;17.40;99.90
22850;DHT22;11591;44.792;10.358;2023-03-22T11:46:50;17.40;99.90
22850;DHT22;11591;44.792;10.358;2023-03-22T11:49:17;17.50;99.90
22850;DHT22;11591;44.792;10.358;2023-03-22T11:51:44;17.60;99.90
22850;DHT22;11591;44.792;10.358;2023-03-22T11:54:27;17.60;99.90
22850;DHT22;11591;44.792;10.358;2023-03-22T11:56:57;17.70;99.90
22850;DHT22;11591;44.792;10.358;2023-03-22T12:02:23;17.70;99.90
22850;DHT22;11591;44.792;10.358;2023-03-22T12:05:03;17.80;99.90
22850;DHT22;11591;44.792;10.358;2023-03-22T12:07:32;17.80;99.90
22850;DHT22;11591;44.792;10.358;2023-03-22T12:13:59;17.90;99.90
22850;DHT22;11591;44.792;10.358;2023-03-22T12:16:02;17.90;99.90
22850;DHT22;11591;44.792;10.358;2023-03-22T12:18:55;18.00;99.90
22850;DHT22;11591;44.792;10.358;2023-03-22T12:21:24;18.20;99.90
22850;DHT22;11591;44.792;10.358;2023-03-22T12:23:50;18.20;99.90
22850;DHT22;11591;44.792;10.358;2023-03-22T12:26:20;18.30;99.90
22850;DHT22;11591;44.792;10.358;2023-03-22T12:29:07;18.30;99.90
22850;DHT22;11591;44.792;10.358;2023-03-22T12:31:42;18.40;99.90
22850;DHT22;11591;44.792;10.358;2023-03-22T12:34:14;18.40;99.90
22850;DHT22;11591;44.792;10.358;2023-03-22T12:36:44;18.50;99.90
22850;DHT22;11591;44.792;10.358;2023-03-22T12:39:29;18.50;99.90
22850;DHT22;11591;44.792;10.358;2023-03-22T12:42:03;18.60;99.90
22850;DHT22;11591;44.792;10.358;2023-03-22T12:44:39;18.60;99.90
22850;DHT22;11591;44.792;10.358;2023-03-22T12:47:38;18.70;99.90
22850;DHT22;11591;44.792;10.358;2023-03-22T12:50:16;18.70;99.90
22850;DHT22;11591;44.792;10.358;2023-03-22T12:52:47;18.80;99.90
22850;DHT22;11591;44.792;10.358;2023-03-22T12:55:39;18.80;99.90
22850;DHT22;11591;44.792;10.358;2023-03-22T12:58:07;18.90;99.90
22850;DHT22;11591;44.792;10.358;2023-03-22T13:00:47;19.00;99.90
22850;DHT22;11591;44.792;10.358;2023-03-22T13:05:47;19.10;99.90
22850;DHT22;11591;44.792;10.358;2023-03-22T13:08:22;19.20;99.90
22850;DHT22;11591;44.792;10.358;2023-03-22T13:13:15;19.30;99.90
22850;DHT22;11591;44.792;10.358;2023-03-22T13:21:25;20.20;99.90
22850;DHT22;11591;44.792;10.358;2023-03-22T13:24:40;20.80;99.90
22850;DHT22;11591;44.792;10.358;2023-03-22T13:26:52;21.40;99.90
22850;DHT22;11591;44.792;10.358;2023-03-22T13:31:57;22.40;99.90
22850;DHT22;11591;44.792;10.358;2023-03-22T13:34:44;22.70;99.90
22850;DHT22;11591;44.792;10.358;2023-03-22T13:37:28;22.90;99.90
22850;DHT22;11591;44.792;10.358;2023-03-22T13:40:00;23.00;99.90
22850;DHT22;11591;44.792;10.358;2023-03-22T13:42:45;23.00;99.90
22850;DHT22;11591;44.792;10.358;2023-03-22T13:45:32;23.00;99.90
22850;DHT22;11591;44.792;10.358;2023-03-22T13:48:27;23.00;99.90
22850;DHT22;11591;44.792;10.358;2023-03-22T13:50:48;23.00;99.90
22850;DHT22;11591;44.792;10.358;2023-03-22T13:53:19;23.00;99.90
22850;DHT22;11591;44.792;10.358;2023-03-22T13:58:51;23.00;99.90
22850;DHT22;11591;44.792;10.358;2023-03-22T14:01:31;23.10;99.90
22850;DHT22;11591;44.792;10.358;2023-03-22T14:04:05;23.20;99.90
22850;DHT22;11591;44.792;10.358;2023-03-22T14:09:25;23.30;99.90
22850;DHT22;11591;44.792;10.358;2023-03-22T14:12:04;23.20;99.90
22850;DHT22;11591;44.792;10.358;2023-03-22T14:14:38;22.90;99.90
22850;DHT22;11591;44.792;10.358;2023-03-22T14:19:45;22.80;99.90
22850;DHT22;11591;44.792;10.358;2023-03-22T14:22:25;23.00;99.90
22850;DHT22;11591;44.792;10.358;2023-03-22T14:24:55;23.00;99.90
22850;DHT22;11591;44.792;10.358;2023-03-22T14:27:22;23.30;99.90
22850;DHT22;11591;44.792;10.358;2023-03-22T14:29:49;23.40;99.90
22850;DHT22;11591;44.792;10.358;2023-03-22T14:32:23;23.50;99.90
22850;DHT22;11591;44.792;10.358;2023-03-22T14:35:05;23.60;99.90
22850;DHT22;11591;44.792;10.358;2023-03-22T14:37:32;23.90;99.90
22850;DHT22;11591;44.792;10.358;2023-03-22T14:39:58;24.10;99.90
22850;DHT22;11591;44.792;10.358;2023-03-22T14:42:29;24.20;99.90
22850;DHT22;11591;44.792;10.358;2023-03-22T14:44:59;24.40;99.90
22850;DHT22;11591;44.792;10.358;2023-03-22T14:47:31;24.60;99.90
22850;DHT22;11591;44.792;10.358;2023-03-22T14:50:15;24.70;99.90
22850;DHT22;11591;44.792;10.358;2023-03-22T14:52:42;24.80;99.90
22850;DHT22;11591;44.792;10.358;2023-03-22T14:55:20;25.00;99.90
22850;DHT22;11591;44.792;10.358;2023-03-22T14:57:55;25.10;99.90
22850;DHT22;11591;44.792;10.358;2023-03-22T15:00:22;25.10;99.90
22850;DHT22;11591;44.792;10.358;2023-03-22T15:03:13;25.10;99.90
22850;DHT22;11591;44.792;10.358;2023-03-22T15:05:44;25.10;99.90
22850;DHT22;11591;44.792;10.358;2023-03-22T15:08:21;25.20;99.90
22850;DHT22;11591;44.792;10.358;2023-03-22T15:10:52;25.30;99.90
22850;DHT22;11591;44.792;10.358;2023-03-22T15:13:19;25.40;99.90
22850;DHT22;11591;44.792;10.358;2023-03-22T15:15:46;25.60;99.90
22850;DHT22;11591;44.792;10.358;2023-03-22T15:18:18;25.60;99.90
22850;DHT22;11591;44.792;10.358;2023-03-22T15:20:46;25.80;99.90
22850;DHT22;11591;44.792;10.358;2023-03-22T15:23:32;25.90;99.90
22850;DHT22;11591;44.792;10.358;2023-03-22T15:26:03;25.90;99.90
22850;DHT22;11591;44.792;10.358;2023-03-22T15:28:32;26.00;99.90
22850;DHT22;11591;44.792;10.358;2023-03-22T15:31:02;26.10;99.90
22850;DHT22;11591;44.792;10.358;2023-03-22T15:33:34;26.10;99.90
22850;DHT22;11591;44.792;10.358;2023-03-22T15:36:01;26.10;99.80
22850;DHT22;11591;44.792;10.358;2023-03-22T15:38:38;26.10;99.90
22850;DHT22;11591;44.792;10.358;2023-03-22T15:41:27;26.10;99.90
22850;DHT22;11591;44.792;10.358;2023-03-22T15:44:04;26.10;99.70
22850;DHT22;11591;44.792;10.358;2023-03-22T15:46:58;26.00;99.70
22850;DHT22;11591;44.792;10.358;2023-03-22T15:52:11;25.70;99.50
22850;DHT22;11591;44.792;10.358;2023-03-22T15:54:45;25.60;99.60
22850;DHT22;11591;44.792;10.358;2023-03-22T15:57:54;25.40;99.60
22850;DHT22;11591;44.792;10.358;2023-03-22T16:00:27;25.30;99.60
22850;DHT22;11591;44.792;10.358;2023-03-22T16:05:20;25.10;99.80
22850;DHT22;11591;44.792;10.358;2023-03-22T16:07:46;25.00;99.70
22850;DHT22;11591;44.792;10.358;2023-03-22T16:10:20;24.90;99.70
22850;DHT22;11591;44.792;10.358;2023-03-22T16:12:46;24.80;99.80
22850;DHT22;11591;44.792;10.358;2023-03-22T16:15:20;24.70;99.70
22850;DHT22;11591;44.792;10.358;2023-03-22T16:17:47;24.60;99.90
22850;DHT22;11591;44.792;10.358;2023-03-22T16:20:14;24.50;99.90
22850;DHT22;11591;44.792;10.358;2023-03-22T16:22:42;24.50;99.90
22850;DHT22;11591;44.792;10.358;2023-03-22T16:25:18;24.40;99.80
22850;DHT22;11591;44.792;10.358;2023-03-22T16:27:44;24.30;99.90
22850;DHT22;11591;44.792;10.358;2023-03-22T16:30:12;24.20;99.90
22850;DHT22;11591;44.792;10.358;2023-03-22T16:32:39;24.00;99.90
22850;DHT22;11591;44.792;10.358;2023-03-22T16:35:05;24.00;99.90
22850;DHT22;11591;44.792;10.358;2023-03-22T16:37:35;23.90;99.90
22850;DHT22;11591;44.792;10.358;2023-03-22T16:40:01;23.80;99.90
22850;DHT22;11591;44.792;10.358;2023-03-22T16:42:27;23.70;99.90
22850;DHT22;11591;44.792;10.358;2023-03-22T16:44:54;23.50;99.90
22850;DHT22;11591;44.792;10.358;2023-03-22T16:47:23;23.50;99.90
22850;DHT22;11591;44.792;10.358;2023-03-22T16:49:53;23.40;99.90
22850;DHT22;11591;44.792;10.358;2023-03-22T16:52:23;23.30;99.90
22850;DHT22;11591;44.792;10.358;2023-03-22T16:54:51;23.30;99.90
22850;DHT22;11591;44.792;10.358;2023-03-22T16:57:20;23.20;99.90
22850;DHT22;11591;44.792;10.358;2023-03-22T16:59:48;23.10;99.90
22850;DHT22;11591;44.792;10.358;2023-03-22T17:04:44;23.00;99.90
22850;DHT22;11591;44.792;10.358;2023-03-22T17:07:13;22.90;99.90
22850;DHT22;11591;44.792;10.358;2023-03-22T17:09:39;22.80;99.90
22850;DHT22;11591;44.792;10.358;2023-03-22T17:12:05;22.70;99.90
22850;DHT22;11591;44.792;10.358;2023-03-22T17:14:31;22.60;99.90
22850;DHT22;11591;44.792;10.358;2023-03-22T17:16:57;22.50;99.90
22850;DHT22;11591;44.792;10.358;2023-03-22T17:19:22;22.30;99.90
22850;DHT22;11591;44.792;10.358;2023-03-22T17:21:48;22.20;99.90
22850;DHT22;11591;44.792;10.358;2023-03-22T17:24:14;22.10;99.90